Time;durP1;ratioP1;P1;durP2;ratioP2;P2;SDS_P1;SDS_P2;PMS_P1;PMS_P2;Temp;Humidity;BMP_temperature;BMP_pressure;BME280_temperature;BME280_humidity;BME280_pressure;Samples;Min_cycle;Max_cycle;Signal;HPM_P1;HPM_P2
2023/12/15 00:00:21;;;;;;;4.45;3.25;;;10.80;99.90;;;;;;4267028;27;20046;-66
2023/12/15 00:02:23;;;;;;;5.25;3.42;;;10.70;99.90;;;;;;4267271;27;20050;-66
2023/12/15 00:04:25;;;;;;;4.57;3.38;;;10.60;99.90;;;;;;4266694;27;20046;-67
2023/12/15 00:06:28;;;;;;;5.20;3.10;;;10.60;99.90;;;;;;4267001;27;20049;-66
2023/12/15 00:08:30;;;;;;;4.45;3.00;;;10.60;99.90;;;;;;4267019;27;20046;-67
2023/12/15 00:10:32;;;;;;;4.35;2.85;;;10.70;99.90;;;;;;4266911;27;20129;-65
2023/12/15 00:12:34;;;;;;;4.68;2.88;;;10.50;99.90;;;;;;4266815;27;20042;-66
2023/12/15 00:14:38;;;;;;;4.22;3.17;;;10.60;99.90;;;;;;4266955;27;20121;-68
2023/12/15 00:16:40;;;;;;;3.88;3.13;;;10.70;99.90;;;;;;4248815;27;20047;-66
2023/12/15 00:18:42;;;;;;;6.35;3.15;;;10.80;99.90;;;;;;4266645;27;20103;-66
2023/12/15 00:20:44;;;;;;;5.70;3.45;;;10.80;99.90;;;;;;4266932;27;20053;-66
2023/12/15 00:22:46;;;;;;;4.35;2.85;;;10.70;99.90;;;;;;4266822;27;20485;-66
2023/12/15 00:24:48;;;;;;;4.00;3.20;;;10.80;99.90;;;;;;4266940;27;20038;-66
2023/12/15 00:26:50;;;;;;;4.53;2.88;;;11.00;99.90;;;;;;4266920;27;20070;-66
2023/12/15 00:28:52;;;;;;;5.53;3.83;;;11.00;99.90;;;;;;4266761;27;20145;-66
2023/12/15 00:30:56;;;;;;;5.50;3.22;;;11.00;99.90;;;;;;4266825;27;20415;-66
2023/12/15 00:32:58;;;;;;;4.28;3.22;;;11.00;99.90;;;;;;4266115;27;20091;-66
2023/12/15 00:35:00;;;;;;;5.95;4.13;;;11.10;99.90;;;;;;4266865;27;20050;-66
2023/12/15 00:37:03;;;;;;;7.57;4.50;;;11.00;99.90;;;;;;4266106;27;20054;-67
2023/12/15 00:39:05;;;;;;;5.43;4.07;;;11.00;99.90;;;;;;4266579;27;20051;-66
2023/12/15 00:41:07;;;;;;;6.78;4.68;;;10.90;99.90;;;;;;4265980;27;20051;-66
2023/12/15 00:43:09;;;;;;;7.68;3.58;;;10.70;99.90;;;;;;4266413;27;20083;-65
2023/12/15 00:45:11;;;;;;;5.65;4.63;;;10.60;99.90;;;;;;4248162;27;20092;-66
2023/12/15 00:47:15;;;;;;;6.70;4.32;;;10.60;99.90;;;;;;4266104;27;20405;-66
2023/12/15 00:49:17;;;;;;;7.75;4.80;;;10.50;99.90;;;;;;4266323;27;20046;-66
2023/12/15 00:51:19;;;;;;;5.07;4.00;;;10.60;99.90;;;;;;4266461;27;20046;-66
2023/12/15 00:53:21;;;;;;;8.15;4.32;;;10.70;99.90;;;;;;4266362;27;20048;-66
2023/12/15 00:55:23;;;;;;;8.40;4.95;;;10.70;99.90;;;;;;4266364;27;20409;-67
2023/12/15 00:57:25;;;;;;;9.90;5.53;;;10.80;99.90;;;;;;4266302;27;20386;-66
2023/12/15 00:59:27;;;;;;;7.20;4.40;;;10.80;99.90;;;;;;4266111;27;20092;-70
2023/12/15 01:01:29;;;;;;;9.18;5.57;;;10.80;99.90;;;;;;4265975;27;20042;-66
2023/12/15 01:03:33;;;;;;;8.00;4.25;;;10.80;99.90;;;;;;4266390;27;20046;-67
2023/12/15 01:05:35;;;;;;;6.22;4.57;;;10.80;99.90;;;;;;4266228;27;20050;-66
2023/12/15 01:07:37;;;;;;;6.07;4.38;;;10.80;99.90;;;;;;4266183;27;20503;-66
2023/12/15 01:09:40;;;;;;;5.90;4.13;;;10.90;99.90;;;;;;4266254;27;20047;-67
2023/12/15 01:11:42;;;;;;;5.55;3.80;;;11.00;99.90;;;;;;4266335;27;20063;-67
2023/12/15 01:13:44;;;;;;;7.25;5.18;;;11.00;99.90;;;;;;4266311;27;20053;-67
2023/12/15 01:15:46;;;;;;;8.70;5.07;;;11.10;99.90;;;;;;4265807;27;20049;-66
2023/12/15 01:17:48;;;;;;;8.32;4.93;;;11.00;99.90;;;;;;4247354;27;20047;-66
2023/12/15 01:19:52;;;;;;;6.70;5.00;;;11.10;99.90;;;;;;4265620;27;20445;-66
2023/12/15 01:21:54;;;;;;;7.95;5.80;;;11.10;99.90;;;;;;4265980;27;20066;-66
2023/12/15 01:23:56;;;;;;;6.53;5.43;;;11.10;99.90;;;;;;4265636;27;20043;-66
2023/12/15 01:25:58;;;;;;;7.15;5.20;;;11.00;99.90;;;;;;4265743;27;20070;-66
2023/12/15 01:28:00;;;;;;;7.28;5.07;;;11.00;99.90;;;;;;4247390;27;20069;-66
2023/12/15 01:30:03;;;;;;;8.88;5.28;;;11.10;99.90;;;;;;4265856;27;20425;-66
2023/12/15 01:32:06;;;;;;;8.07;5.97;;;11.20;99.90;;;;;;4265181;27;20456;-66
2023/12/15 01:34:08;;;;;;;6.90;5.28;;;11.10;99.90;;;;;;4265597;27;20043;-66
2023/12/15 01:36:11;;;;;;;6.53;4.93;;;11.10;99.90;;;;;;4265495;27;20066;-67
2023/12/15 01:38:13;;;;;;;7.80;4.88;;;11.20;99.90;;;;;;4265500;27;20062;-67
2023/12/15 01:40:15;;;;;;;6.10;5.00;;;11.20;99.90;;;;;;4265456;27;20043;-66
2023/12/15 01:42:18;;;;;;;7.07;5.47;;;11.30;99.90;;;;;;4265443;27;20168;-68
2023/12/15 01:44:20;;;;;;;6.50;5.47;;;11.20;99.90;;;;;;4265518;27;20046;-67
2023/12/15 01:46:22;;;;;;;10.40;6.63;;;11.30;99.90;;;;;;4265013;27;20043;-66
2023/12/15 01:48:24;;;;;;;9.43;6.07;;;11.20;99.90;;;;;;4265478;27;20053;-66
2023/12/15 01:50:26;;;;;;;10.70;6.72;;;11.10;99.90;;;;;;4265383;27;20042;-67
2023/12/15 01:52:30;;;;;;;8.27;6.20;;;11.10;99.90;;;;;;4264518;27;20126;-68
2023/12/15 01:54:32;;;;;;;10.60;7.88;;;11.20;99.90;;;;;;4265247;27;20103;-67
2023/12/15 01:56:34;;;;;;;11.00;7.50;;;11.20;99.90;;;;;;4265198;27;20074;-67
2023/12/15 01:58:36;;;;;;;8.30;6.60;;;11.20;99.90;;;;;;4265291;27;20492;-67
2023/12/15 02:00:38;;;;;;;12.02;8.43;;;11.30;99.90;;;;;;4264676;27;20125;-68
2023/12/15 02:02:40;;;;;;;10.80;6.53;;;11.10;99.90;;;;;;4265438;27;20477;-67
2023/12/15 02:04:42;;;;;;;10.68;6.78;;;11.20;99.90;;;;;;4265561;27;20541;-67
2023/12/15 02:06:44;;;;;;;12.25;8.27;;;11.30;99.90;;;;;;4265572;27;20102;-68
2023/12/15 02:08:48;;;;;;;10.73;7.50;;;11.20;99.90;;;;;;4265440;27;20070;-67
2023/12/15 02:10:50;;;;;;;10.75;7.50;;;11.20;99.90;;;;;;4265523;27;20524;-68
2023/12/15 02:12:52;;;;;;;9.93;7.53;;;11.10;99.90;;;;;;4265134;27;20038;-68
2023/12/15 02:14:54;;;;;;;12.88;8.55;;;11.20;99.90;;;;;;4246247;27;20047;-68
2023/12/15 02:16:56;;;;;;;12.45;7.75;;;11.10;99.90;;;;;;4265176;27;20069;-68
2023/12/15 02:18:58;;;;;;;10.20;6.43;;;11.10;99.90;;;;;;4265286;27;20043;-67
2023/12/15 02:21:00;;;;;;;9.73;6.90;;;11.20;99.90;;;;;;4265144;27;20062;-66
2023/12/15 02:23:03;;;;;;;10.00;6.97;;;11.30;99.90;;;;;;4265026;27;20053;-68
2023/12/15 02:25:06;;;;;;;9.75;6.35;;;11.30;99.90;;;;;;4265218;27;20486;-66
2023/12/15 02:27:08;;;;;;;9.73;6.25;;;11.40;99.90;;;;;;4265228;27;20077;-67
2023/12/15 02:29:10;;;;;;;12.43;7.07;;;11.40;99.90;;;;;;4265609;27;20058;-67
2023/12/15 02:31:12;;;;;;;12.93;6.88;;;11.30;99.90;;;;;;4266149;27;20038;-73
2023/12/15 02:33:14;;;;;;;11.50;7.07;;;11.40;99.90;;;;;;4266287;27;20125;-68
2023/12/15 02:35:17;;;;;;;13.00;7.93;;;11.30;99.90;;;;;;4266411;27;20484;-70
2023/12/15 02:37:19;;;;;;;12.02;7.20;;;11.30;99.90;;;;;;4266500;27;20463;-68
2023/12/15 02:39:22;;;;;;;11.10;7.03;;;11.30;99.90;;;;;;4266011;27;20043;-68
2023/12/15 02:41:24;;;;;;;12.10;8.13;;;11.30;99.90;;;;;;4247377;27;20570;-67
2023/12/15 02:43:26;;;;;;;10.60;7.05;;;11.40;99.90;;;;;;4265388;27;20042;-71
2023/12/15 02:45:28;;;;;;;10.20;6.75;;;11.40;99.90;;;;;;4265054;27;20047;-67
2023/12/15 02:47:30;;;;;;;10.38;7.35;;;11.40;99.90;;;;;;4264729;27;20039;-67
2023/12/15 02:49:37;;;;;;;10.00;7.30;;;11.40;99.90;;;;;;4264712;27;20070;-67
2023/12/15 02:51:39;;;;;;;9.52;6.80;;;11.40;99.90;;;;;;4264832;27;20054;-68
2023/12/15 02:53:41;;;;;;;13.18;6.78;;;11.40;99.90;;;;;;4264808;27;20409;-67
2023/12/15 02:55:44;;;;;;;10.65;7.60;;;11.40;99.90;;;;;;4264585;27;20043;-67
2023/12/15 02:57:46;;;;;;;9.77;8.25;;;11.40;99.90;;;;;;4264299;27;20054;-68
2023/12/15 02:59:48;;;;;;;11.80;8.75;;;11.40;99.90;;;;;;4264711;27;20091;-69
2023/12/15 03:01:50;;;;;;;9.90;7.22;;;11.40;99.90;;;;;;4264723;27;20497;-68
2023/12/15 03:03:52;;;;;;;11.57;8.55;;;11.40;99.90;;;;;;4267070;27;20042;-68
2023/12/15 03:05:54;;;;;;;11.07;9.00;;;11.40;99.90;;;;;;4267950;27;20133;-68
2023/12/15 03:07:56;;;;;;;12.93;8.57;;;11.30;99.90;;;;;;4268126;27;20067;-68
2023/12/15 03:09:59;;;;;;;13.13;8.25;;;11.30;99.90;;;;;;4267855;27;20042;-66
2023/12/15 03:12:03;;;;;;;13.50;9.45;;;11.30;99.90;;;;;;4267739;27;20042;-68
2023/12/15 03:14:05;;;;;;;13.20;8.90;;;11.20;99.90;;;;;;4268094;27;20066;-69
2023/12/15 03:16:09;;;;;;;11.13;8.00;;;11.00;99.90;;;;;;4268038;27;20053;-68
2023/12/15 03:18:11;;;;;;;13.20;8.30;;;11.00;99.90;;;;;;4267819;27;20043;-66
2023/12/15 03:20:13;;;;;;;16.52;9.85;;;11.00;99.90;;;;;;4267675;27;20043;-68
2023/12/15 03:22:15;;;;;;;16.02;8.77;;;11.00;99.90;;;;;;4267770;27;20080;-68
2023/12/15 03:24:18;;;;;;;11.57;9.38;;;11.00;99.90;;;;;;4267672;27;20071;-68
2023/12/15 03:26:20;;;;;;;12.18;8.20;;;10.90;99.90;;;;;;4249223;27;20094;-68
2023/12/15 03:28:23;;;;;;;9.50;7.85;;;10.90;99.90;;;;;;4267638;27;20115;-67
2023/12/15 03:30:25;;;;;;;13.50;9.00;;;10.90;99.90;;;;;;4267629;27;20505;-67
2023/12/15 03:32:27;;;;;;;12.15;8.32;;;11.00;99.90;;;;;;4267456;27;20055;-66
2023/12/15 03:34:29;;;;;;;11.95;8.85;;;11.00;99.90;;;;;;4267342;27;20050;-68
2023/12/15 03:36:35;;;;;;;9.82;7.47;;;10.90;99.90;;;;;;4267394;27;20454;-68
2023/12/15 03:38:37;;;;;;;11.25;8.50;;;10.90;99.90;;;;;;4267599;27;20065;-69
2023/12/15 03:40:39;;;;;;;13.18;8.68;;;10.90;99.90;;;;;;4267508;27;20401;-68
2023/12/15 03:42:41;;;;;;;13.63;7.93;;;11.00;99.90;;;;;;4267259;27;20047;-69
2023/12/15 03:44:45;;;;;;;14.40;9.10;;;11.10;99.90;;;;;;4267548;27;20454;-68
2023/12/15 03:46:47;;;;;;;15.52;10.50;;;11.10;99.90;;;;;;4267521;27;20104;-69
2023/12/15 03:48:49;;;;;;;10.90;8.52;;;11.10;99.90;;;;;;4267547;27;20054;-69
2023/12/15 03:50:51;;;;;;;12.38;9.55;;;11.20;99.90;;;;;;4267488;27;20043;-69
2023/12/15 03:52:53;;;;;;;12.48;8.40;;;11.30;99.90;;;;;;4268613;27;20046;-71
2023/12/15 03:54:55;;;;;;;13.73;8.43;;;11.30;99.90;;;;;;4268383;27;20131;-69
2023/12/15 03:56:58;;;;;;;13.05;9.88;;;11.30;99.90;;;;;;4266949;27;20043;-68
2023/12/15 03:59:01;;;;;;;14.05;9.45;;;11.30;99.90;;;;;;4267447;27;20043;-69
2023/12/15 04:01:05;;;;;;;11.60;9.18;;;11.30;99.90;;;;;;4267020;27;20062;-70
2023/12/15 04:03:07;;;;;;;13.45;8.68;;;11.30;99.90;;;;;;4267218;27;20443;-70
2023/12/15 04:05:09;;;;;;;15.23;9.70;;;11.40;99.90;;;;;;4267202;27;20051;-70
2023/12/15 04:07:12;;;;;;;13.10;8.75;;;11.30;99.90;;;;;;4267121;27;20050;-70
2023/12/15 04:09:14;;;;;;;13.20;9.25;;;11.30;99.90;;;;;;4267133;27;20059;-70
2023/12/15 04:11:16;;;;;;;12.57;8.35;;;11.30;99.90;;;;;;4266525;27;20046;-70
2023/12/15 04:13:19;;;;;;;17.90;10.60;;;11.30;99.90;;;;;;4266911;27;20070;-70
2023/12/15 04:15:21;;;;;;;15.00;10.25;;;11.40;99.90;;;;;;4265864;27;20050;-69
2023/12/15 04:17:24;;;;;;;11.65;9.50;;;11.40;99.90;;;;;;4266966;27;20534;-70
2023/12/15 04:19:26;;;;;;;13.35;9.85;;;11.50;99.90;;;;;;4266898;27;20500;-70
2023/12/15 04:21:29;;;;;;;13.27;9.88;;;11.40;99.90;;;;;;4266870;27;20039;-70
2023/12/15 04:23:31;;;;;;;14.07;10.27;;;11.40;99.90;;;;;;4266973;27;20091;-70
2023/12/15 04:25:34;;;;;;;12.05;9.38;;;11.50;99.90;;;;;;4266582;27;20047;-70
2023/12/15 04:27:36;;;;;;;13.27;8.70;;;11.50;99.90;;;;;;4266863;27;20047;-70
2023/12/15 04:29:41;;;;;;;14.48;9.77;;;11.50;99.90;;;;;;4266510;27;20520;-70
2023/12/15 04:31:43;;;;;;;14.77;10.18;;;11.50;99.90;;;;;;4266566;27;20046;-70
2023/12/15 04:33:47;;;;;;;14.98;10.25;;;11.50;99.90;;;;;;4266583;27;20402;-69
2023/12/15 04:35:50;;;;;;;16.83;9.30;;;11.50;99.90;;;;;;4266545;27;20051;-70
2023/12/15 04:37:52;;;;;;;11.98;8.60;;;11.50;99.90;;;;;;4266720;27;20516;-70
2023/12/15 04:39:54;;;;;;;12.23;9.25;;;11.60;99.90;;;;;;4266561;27;20476;-70
2023/12/15 04:41:56;;;;;;;13.90;9.55;;;11.60;99.90;;;;;;4266657;27;20117;-70
2023/12/15 04:43:58;;;;;;;13.80;9.50;;;11.60;99.90;;;;;;4266803;27;20042;-69
2023/12/15 04:46:01;;;;;;;13.38;9.15;;;11.60;99.90;;;;;;4248135;27;20039;-70
2023/12/15 04:48:03;;;;;;;12.40;9.05;;;11.60;99.90;;;;;;4266578;27;20049;-69
2023/12/15 04:50:08;;;;;;;13.95;8.63;;;11.60;99.90;;;;;;4266348;27;20497;-69
2023/12/15 04:52:10;;;;;;;14.15;8.77;;;11.60;99.90;;;;;;4266548;27;20046;-68
2023/12/15 04:54:12;;;;;;;11.88;7.85;;;11.60;99.90;;;;;;4266128;27;20133;-69
2023/12/15 04:56:14;;;;;;;10.35;7.60;;;11.50;99.90;;;;;;4266551;27;20043;-68
2023/12/15 04:58:16;;;;;;;12.93;8.57;;;11.50;99.90;;;;;;4247910;27;20043;-69
2023/12/15 05:00:19;;;;;;;12.93;8.27;;;11.60;99.90;;;;;;4266006;27;20043;-69
2023/12/15 05:02:21;;;;;;;15.65;9.30;;;11.70;99.90;;;;;;4266171;27;20481;-69
2023/12/15 05:04:23;;;;;;;13.95;8.90;;;11.60;99.90;;;;;;4248017;27;20592;-69
2023/12/15 05:06:27;;;;;;;14.02;8.10;;;11.60;99.90;;;;;;4266347;27;20542;-68
2023/12/15 05:08:30;;;;;;;12.52;8.20;;;11.60;99.90;;;;;;4265686;27;20038;-67
2023/12/15 05:10:32;;;;;;;13.25;8.40;;;11.60;99.90;;;;;;4266128;27;20062;-69
2023/12/15 05:12:34;;;;;;;15.13;9.68;;;11.60;99.90;;;;;;4266240;27;20062;-68
2023/12/15 05:14:37;;;;;;;13.02;8.07;;;11.70;99.90;;;;;;4265822;27;20058;-68
2023/12/15 05:16:40;;;;;;;14.43;8.63;;;11.70;99.90;;;;;;4265831;27;20066;-68
2023/12/15 05:18:42;;;;;;;18.08;9.38;;;11.60;99.90;;;;;;4265765;27;20150;-67
2023/12/15 05:20:44;;;;;;;12.15;8.60;;;11.40;99.90;;;;;;4247594;27;20122;-69
2023/12/15 05:22:47;;;;;;;10.95;7.38;;;11.50;99.90;;;;;;4265454;27;20050;-68
2023/12/15 05:24:51;;;;;;;13.20;8.50;;;11.50;99.90;;;;;;4265839;27;20404;-70
2023/12/15 05:26:53;;;;;;;13.23;8.63;;;11.60;99.90;;;;;;4265876;27;20091;-69
2023/12/15 05:28:56;;;;;;;12.73;9.23;;;11.60;99.90;;;;;;4247448;27;20502;-69
2023/12/15 05:31:00;;;;;;;13.57;8.88;;;11.60;99.90;;;;;;4265746;27;20386;-69
2023/12/15 05:33:03;;;;;;;11.23;8.48;;;11.60;99.90;;;;;;4265812;27;20047;-68
2023/12/15 05:35:06;;;;;;;14.65;8.90;;;11.50;99.90;;;;;;4265580;27;20046;-69
2023/12/15 05:37:08;;;;;;;12.27;8.65;;;11.60;99.90;;;;;;4265162;27;20051;-69
2023/12/15 05:39:14;;;;;;;12.52;8.50;;;11.70;99.90;;;;;;4265763;27;20516;-69
2023/12/15 05:41:16;;;;;;;16.15;10.00;;;11.70;99.90;;;;;;4265886;27;20071;-69
2023/12/15 05:43:18;;;;;;;15.85;10.13;;;11.60;99.90;;;;;;4265727;27;20043;-70
2023/12/15 05:45:21;;;;;;;11.60;7.45;;;11.60;99.90;;;;;;4266221;27;20043;-70
2023/12/15 05:47:23;;;;;;;13.95;9.23;;;11.60;99.90;;;;;;4266072;27;20047;-69
2023/12/15 05:49:26;;;;;;;14.35;9.27;;;11.60;99.90;;;;;;4265356;27;20055;-70
2023/12/15 05:51:29;;;;;;;15.57;8.93;;;11.60;99.90;;;;;;4246776;27;20062;-68
2023/12/15 05:53:31;;;;;;;13.45;8.30;;;11.50;99.90;;;;;;4265496;27;20043;-68
2023/12/15 05:55:37;;;;;;;12.02;8.60;;;11.60;99.90;;;;;;4265119;27;20050;-69
2023/12/15 05:57:39;;;;;;;14.80;9.75;;;11.60;99.90;;;;;;4246915;27;20049;-69
2023/12/15 05:59:41;;;;;;;11.57;8.25;;;11.50;99.90;;;;;;4265329;27;20042;-68
2023/12/15 06:01:43;;;;;;;15.93;9.50;;;11.50;99.90;;;;;;4265221;27;20117;-69
2023/12/15 06:03:45;;;;;;;16.13;9.23;;;11.60;99.90;;;;;;4265402;27;20107;-68
2023/12/15 06:05:48;;;;;;;14.65;9.27;;;11.50;99.90;;;;;;4265037;27;20038;-68
2023/12/15 06:07:51;;;;;;;16.48;9.52;;;11.50;99.90;;;;;;4265406;27;20435;-68
2023/12/15 06:09:53;;;;;;;16.98;9.80;;;11.40;99.90;;;;;;4265173;27;20081;-70
2023/12/15 06:11:56;;;;;;;11.57;8.60;;;11.40;99.90;;;;;;4265226;27;20057;-68
2023/12/15 06:13:58;;;;;;;16.38;10.10;;;11.40;99.90;;;;;;4265449;27;20460;-68
2023/12/15 06:16:00;;;;;;;14.90;9.75;;;11.40;99.90;;;;;;4265264;27;20051;-69
2023/12/15 06:18:04;;;;;;;14.70;9.27;;;11.40;99.90;;;;;;4265396;27;20046;-69
2023/12/15 06:20:08;;;;;;;12.70;7.50;;;11.40;99.90;;;;;;4266708;27;20077;-71
2023/12/15 06:22:10;;;;;;;14.20;8.87;;;11.50;99.90;;;;;;4267316;27;20039;-69
2023/12/15 06:24:12;;;;;;;14.93;8.82;;;11.50;99.90;;;;;;4267284;27;20091;-69
2023/12/15 06:26:17;;;;;;;11.82;8.50;;;11.70;99.90;;;;;;4246677;27;20125;-69
2023/12/15 06:28:21;;;;;;;15.88;9.45;;;11.80;99.90;;;;;;4265055;27;20390;-69
2023/12/15 06:30:23;;;;;;;13.07;8.13;;;11.60;99.90;;;;;;4264743;27;20039;-69
2023/12/15 06:32:25;;;;;;;11.40;7.28;;;11.50;99.90;;;;;;4265160;27;20043;-68
2023/12/15 06:34:27;;;;;;;13.02;8.38;;;11.70;99.90;;;;;;4264963;27;20091;-68
2023/12/15 06:36:29;;;;;;;10.88;8.23;;;11.70;99.90;;;;;;4264235;27;20055;-68
2023/12/15 06:38:32;;;;;;;14.63;9.00;;;11.70;99.90;;;;;;4264328;27;20053;-68
2023/12/15 06:40:34;;;;;;;11.98;7.90;;;11.70;99.90;;;;;;4264952;27;20132;-68
2023/12/15 06:42:36;;;;;;;14.18;8.75;;;11.80;99.90;;;;;;4264829;27;20076;-68
2023/12/15 06:44:40;;;;;;;15.32;8.98;;;11.80;99.90;;;;;;4264908;27;20051;-68
2023/12/15 06:46:44;;;;;;;14.20;9.47;;;11.80;99.90;;;;;;4264997;27;20038;-67
2023/12/15 06:48:46;;;;;;;11.50;8.13;;;11.70;99.90;;;;;;4264907;27;20055;-67
2023/12/15 06:50:48;;;;;;;15.38;9.52;;;11.70;99.90;;;;;;4264605;27;20078;-67
2023/12/15 06:52:51;;;;;;;16.67;10.68;;;11.60;99.90;;;;;;4264740;27;20119;-67
2023/12/15 06:54:53;;;;;;;15.30;9.23;;;11.50;99.90;;;;;;4264791;27;20539;-67
2023/12/15 06:56:55;;;;;;;12.75;8.38;;;11.50;99.90;;;;;;4264881;27;20043;-68
2023/12/15 06:58:57;;;;;;;14.88;8.90;;;11.50;99.90;;;;;;4264831;27;20482;-68
2023/12/15 07:01:01;;;;;;;13.65;8.88;;;11.60;99.90;;;;;;4264545;27;20043;-68
2023/12/15 07:03:04;;;;;;;15.93;9.93;;;11.70;99.90;;;;;;4264608;27;20034;-68
2023/12/15 07:05:07;;;;;;;16.58;9.35;;;11.80;99.90;;;;;;4264229;27;20070;-67
2023/12/15 07:07:09;;;;;;;13.50;8.63;;;11.70;99.90;;;;;;4264463;27;20386;-68
2023/12/15 07:09:11;;;;;;;13.68;9.35;;;11.80;99.90;;;;;;4264751;27;20136;-68
2023/12/15 07:11:13;;;;;;;15.23;9.13;;;11.70;99.90;;;;;;4264770;27;20042;-68
2023/12/15 07:13:15;;;;;;;12.15;8.68;;;11.70;99.90;;;;;;4264643;27;20065;-67
2023/12/15 07:15:20;;;;;;;13.88;9.20;;;11.80;99.90;;;;;;4246219;28;20452;-68
2023/12/15 07:17:23;;;;;;;16.13;8.70;;;11.70;99.90;;;;;;4264571;27;20053;-67
2023/12/15 07:19:25;;;;;;;16.00;9.82;;;11.70;99.90;;;;;;4264155;27;20047;-67
2023/12/15 07:21:28;;;;;;;14.05;9.85;;;11.60;99.90;;;;;;4264377;27;20419;-68
2023/12/15 07:23:30;;;;;;;14.10;8.85;;;11.60;99.90;;;;;;4264726;27;20116;-67
2023/12/15 07:25:32;;;;;;;17.88;10.30;;;11.60;99.90;;;;;;4264430;27;20043;-67
2023/12/15 07:27:34;;;;;;;15.40;9.38;;;11.50;99.90;;;;;;4264414;27;20073;-67
2023/12/15 07:29:36;;;;;;;13.90;8.57;;;11.70;99.90;;;;;;4264236;27;20117;-67
2023/12/15 07:31:38;;;;;;;11.93;8.35;;;11.70;99.90;;;;;;4264443;27;20046;-67
2023/12/15 07:33:42;;;;;;;17.02;9.05;;;11.60;99.90;;;;;;4264082;27;20449;-66
2023/12/15 07:35:44;;;;;;;14.95;9.23;;;11.60;99.90;;;;;;4264352;27;20070;-67
2023/12/15 07:37:46;;;;;;;13.02;9.45;;;11.60;99.90;;;;;;4264207;27;20047;-67
2023/12/15 07:39:48;;;;;;;15.32;9.98;;;11.50;99.90;;;;;;4264295;27;20066;-68
2023/12/15 07:41:50;;;;;;;20.70;10.80;;;11.70;99.90;;;;;;4264278;27;20050;-68
2023/12/15 07:43:53;;;;;;;17.60;10.65;;;11.60;99.90;;;;;;4264451;27;20121;-68
2023/12/15 07:45:55;;;;;;;19.23;11.32;;;11.50;99.90;;;;;;4264127;27;20048;-67
2023/12/15 07:47:57;;;;;;;14.50;9.27;;;11.60;99.90;;;;;;4264088;27;20477;-67
2023/12/15 07:50:01;;;;;;;13.70;9.90;;;11.60;99.90;;;;;;4264804;27;20047;-68
2023/12/15 07:52:04;;;;;;;15.82;9.55;;;11.60;99.90;;;;;;4267226;27;20130;-68
2023/12/15 07:54:06;;;;;;;14.57;8.95;;;11.60;99.90;;;;;;4249539;27;20054;-69
2023/12/15 07:56:09;;;;;;;16.55;10.88;;;11.60;99.90;;;;;;4267584;27;20060;-68
2023/12/15 07:58:11;;;;;;;14.57;9.25;;;11.50;99.90;;;;;;4267604;27;20434;-67
2023/12/15 08:00:13;;;;;;;12.25;8.60;;;11.60;99.90;;;;;;4267340;27;20077;-68
2023/12/15 08:02:19;;;;;;;15.45;9.52;;;11.80;99.90;;;;;;4267093;27;20046;-67
2023/12/15 08:04:22;;;;;;;16.58;10.73;;;11.80;99.90;;;;;;4267383;27;20130;-67
2023/12/15 08:06:25;;;;;;;17.48;10.10;;;11.70;99.90;;;;;;4267268;27;20049;-67
2023/12/15 08:08:27;;;;;;;15.00;9.30;;;11.50;99.90;;;;;;4267184;27;20053;-67
2023/12/15 08:10:31;;;;;;;14.40;10.05;;;11.50;99.90;;;;;;4267013;27;20042;-67
2023/12/15 08:12:33;;;;;;;15.57;9.30;;;11.50;99.90;;;;;;4267132;27;20095;-67
2023/12/15 08:14:35;;;;;;;12.18;8.95;;;11.60;99.90;;;;;;4267009;27;20166;-68
2023/12/15 08:16:38;;;;;;;14.00;9.18;;;11.70;99.90;;;;;;4266528;27;20046;-68
2023/12/15 08:18:41;;;;;;;16.05;10.05;;;11.70;99.90;;;;;;4266998;27;20404;-68
2023/12/15 08:20:45;;;;;;;15.60;9.95;;;11.70;99.90;;;;;;4266977;27;20087;-68
2023/12/15 08:22:48;;;;;;;14.63;10.07;;;11.80;99.90;;;;;;4266846;27;20512;-67
2023/12/15 08:24:50;;;;;;;19.52;10.80;;;11.80;99.90;;;;;;4267010;27;20125;-67
2023/12/15 08:26:53;;;;;;;15.57;10.07;;;11.90;99.90;;;;;;4267321;27;20126;-71
2023/12/15 08:28:55;;;;;;;14.60;9.27;;;11.90;99.90;;;;;;4266925;27;20121;-68
2023/12/15 08:30:58;;;;;;;18.58;11.77;;;11.90;99.90;;;;;;4266361;27;20042;-68
2023/12/15 08:33:01;;;;;;;16.77;10.88;;;11.90;99.90;;;;;;4248440;27;20537;-68
2023/12/15 08:35:04;;;;;;;14.95;10.57;;;11.90;99.90;;;;;;4266620;27;20155;-68
2023/12/15 08:37:08;;;;;;;16.83;9.43;;;11.90;99.90;;;;;;4266472;27;20054;-66
2023/12/15 08:39:12;;;;;;;16.10;11.60;;;11.90;99.90;;;;;;4266410;27;20403;-64
2023/12/15 08:41:19;;;;;;;20.27;12.40;;;11.90;99.90;;;;;;4266707;27;20066;-65
2023/12/15 08:43:21;;;;;;;17.40;10.60;;;11.90;99.90;;;;;;4267249;27;20163;-65
2023/12/15 08:45:23;;;;;;;22.10;10.50;;;12.00;99.90;;;;;;4266943;27;20122;-65
2023/12/15 08:47:25;;;;;;;20.45;11.48;;;12.00;99.90;;;;;;4267127;27;20054;-65
2023/12/15 08:49:27;;;;;;;17.13;10.45;;;12.00;99.90;;;;;;4266573;27;20080;-65
2023/12/15 08:51:30;;;;;;;17.90;10.90;;;11.90;99.90;;;;;;4266605;27;20446;-65
2023/12/15 08:53:32;;;;;;;17.38;10.90;;;11.90;99.90;;;;;;4266498;27;20053;-64
2023/12/15 08:55:36;;;;;;;15.60;10.45;;;11.90;99.90;;;;;;4266345;27;20091;-63
2023/12/15 08:57:38;;;;;;;16.10;11.20;;;11.90;99.90;;;;;;4266456;27;20129;-64
2023/12/15 08:59:42;;;;;;;17.20;10.45;;;12.10;99.90;;;;;;4266193;27;20042;-65
2023/12/15 09:01:44;;;;;;;20.48;12.18;;;12.10;99.90;;;;;;4265672;27;20050;-65
2023/12/15 09:03:46;;;;;;;19.55;11.90;;;12.20;99.90;;;;;;4266178;27;20047;-64
2023/12/15 09:05:48;;;;;;;20.95;12.55;;;12.10;99.90;;;;;;4266271;27;20050;-64
2023/12/15 09:08:10;;;;;;;13.98;10.65;;;12.10;99.90;;;;;;4266108;27;20095;-64
2023/12/15 09:10:12;;;;;;;17.45;10.07;;;12.30;99.90;;;;;;4266077;27;20042;-65
2023/12/15 09:12:16;;;;;;;18.65;11.60;;;12.30;99.90;;;;;;4266285;27;20402;-65
2023/12/15 09:14:21;;;;;;;20.80;12.65;;;12.30;99.90;;;;;;4266271;27;20129;-63
2023/12/15 09:16:23;;;;;;;16.55;11.38;;;12.20;99.90;;;;;;4265974;27;20079;-64
2023/12/15 09:18:25;;;;;;;18.40;12.57;;;12.20;99.90;;;;;;4265790;27;20134;-64
2023/12/15 09:20:28;;;;;;;18.27;12.07;;;12.20;99.90;;;;;;4265805;27;20149;-63
2023/12/15 09:22:30;;;;;;;22.63;13.52;;;12.30;99.90;;;;;;4265866;27;20168;-62
2023/12/15 09:24:33;;;;;;;16.50;10.82;;;12.30;99.90;;;;;;4265694;27;20046;-65
2023/12/15 09:26:38;;;;;;;18.80;12.45;;;12.40;99.90;;;;;;4265657;27;20043;-63
2023/12/15 09:28:41;;;;;;;17.38;12.05;;;12.30;99.90;;;;;;4265664;27;20498;-63
2023/12/15 09:30:43;;;;;;;17.75;11.50;;;12.40;99.90;;;;;;4265381;27;20043;-63
2023/12/15 09:32:46;;;;;;;14.40;11.30;;;12.40;99.90;;;;;;4265562;27;20047;-63
2023/12/15 09:34:48;;;;;;;19.17;12.27;;;12.30;99.90;;;;;;4265913;27;20059;-64
2023/12/15 09:36:50;;;;;;;19.35;11.98;;;12.40;99.90;;;;;;4265514;27;20094;-63
2023/12/15 09:38:52;;;;;;;18.70;12.95;;;12.40;99.90;;;;;;4265869;27;20404;-63
2023/12/15 09:40:55;;;;;;;21.60;13.05;;;12.50;99.90;;;;;;4265493;27;20043;-66
2023/12/15 09:42:57;;;;;;;17.55;10.68;;;12.60;99.90;;;;;;4265676;27;20046;-65
2023/12/15 09:45:00;;;;;;;12.88;9.88;;;12.70;99.90;;;;;;4265504;27;20047;-62
2023/12/15 09:47:11;;;;;;;21.38;11.38;;;12.80;99.90;;;;;;4265419;27;20046;-66
2023/12/15 09:49:17;;;;;;;21.08;11.60;;;12.80;99.90;;;;;;4265289;27;20046;-65
2023/12/15 09:51:24;;;;;;;16.70;11.40;;;12.80;99.90;;;;;;4265608;27;20065;-63
2023/12/15 09:53:27;;;;;;;18.35;10.77;;;12.80;99.90;;;;;;4265546;27;20038;-65
2023/12/15 09:55:30;;;;;;;19.63;11.70;;;12.80;99.90;;;;;;4265683;27;20122;-66
2023/12/15 09:57:33;;;;;;;18.73;12.00;;;12.90;99.90;;;;;;4265212;27;20054;-66
2023/12/15 09:59:37;;;;;;;15.43;11.48;;;12.90;99.90;;;;;;4265302;27;20131;-66
2023/12/15 10:01:41;;;;;;;18.35;11.70;;;12.90;99.90;;;;;;4265459;27;20038;-66
2023/12/15 10:03:44;;;;;;;23.67;12.85;;;12.90;99.90;;;;;;4265405;27;20042;-66
2023/12/15 10:05:47;;;;;;;21.95;12.07;;;13.00;99.90;;;;;;4266018;27;20054;-66
2023/12/15 10:07:49;;;;;;;20.70;12.57;;;13.10;99.90;;;;;;4266147;27;20070;-68
2023/12/15 10:09:52;;;;;;;25.73;12.45;;;13.10;99.90;;;;;;4266119;27;20125;-67
2023/12/15 10:11:54;;;;;;;19.08;11.48;;;13.10;99.90;;;;;;4265154;27;20047;-67
2023/12/15 10:13:56;;;;;;;19.88;10.75;;;13.10;99.90;;;;;;4264187;27;20441;-66
2023/12/15 10:15:58;;;;;;;16.65;11.63;;;13.00;99.90;;;;;;4265086;27;20466;-67
2023/12/15 10:18:03;;;;;;;14.90;10.68;;;12.90;99.90;;;;;;4265217;27;20043;-67
2023/12/15 10:20:07;;;;;;;16.75;11.13;;;12.90;99.90;;;;;;4265225;27;20401;-67
2023/12/15 10:22:09;;;;;;;21.87;11.20;;;12.90;99.90;;;;;;4265504;27;20135;-67
2023/12/15 10:24:19;;;;;;;17.60;11.05;;;12.90;99.90;;;;;;4265340;27;20047;-68
2023/12/15 10:26:22;;;;;;;23.77;10.55;;;12.90;99.90;;;;;;4265582;27;20425;-68
2023/12/15 10:28:24;;;;;;;16.33;10.30;;;13.00;99.90;;;;;;4264799;27;20047;-69